KJAS/JAS METAR and TAF weather

Enter ICAO airport designator
Station Type Date Time Source
KJAS METAR 2022/11/30 16:15 UTC NOAA

KJAS 301615Z AUTO 01013G19KT 10SM CLR 12/02 A3031 RMK AO2


Station Type Date Time Source
KJAS Decoded METAR 2022/11/30 16:15 UTC NOAA

Jasper, Jasper County-Bell Field Airport, TX, United States (KJAS) 30-53-08N 094-02-05W
Nov 30, 2022 - 11:15 AM EST / 2022.11.30 1615 UTC
Wind: from the N (010 degrees) at 15 MPH (13 KT) gusting to 22 MPH (19 KT):0
Visibility: 10 mile(s):0
Sky conditions: clear
Temperature: 53 F (12 C)
Dew Point: 35 F (2 C)
Relative Humidity: 50%
Pressure (altimeter): 30.31 in. Hg (1026 hPa)
ob: KJAS 301615Z AUTO 01013G19KT 10SM CLR 12/02 A3031 RMK AO2
cycle: 16

Station Type Date Time Source
KJAS TAF UTC NOAA

Error!

Example: see airport list